X  Zatvori METAR podaci zračne luke     LDPL Pula Airport
Temperatura
3°C Temperatura
-2°C Točka rosišta
70% Vlaga



Vjetar
10 KM/S
6 MPS
3 M/S
5 Čvorovi



10°
S
Trenutna situacija

Vedro Vedro
Tlak zraka 1033.92 (hPa) - 30.53 (inHg)
Vidljivost 6.2 (milje) - 10 (km)
Zračna luka
Kôd zračne luke LDPL

Lokacija: Pula Airport
Udaljenost: 39 (km)

Metar:
LDPL 181830Z 01005KT CAVOK 03/M02 Q1034 NOSIG

Vrijeme: 18-01-2022 19:30 CET